Share

Vaestmarkum, Sweden

6:07 PM CEST on April 23, 2014 (GMT +0200)
Ulvon (I90581044) Elev 300 ft | 63.02 °N, 18.65 °E | Change Station

Current weather conditions updated 1 minute ago

Clear
Clear
35.5 °F
Feels Like 32 °F
N
4.0
Wind Variable Wind from ESE
Gusts 6.0 mph
Sunrise 4:53 AM
Sunset 8:39 PM
Moon Waning Crescent

Tomorrow is forecast to be Much Warmer than today.

Pressure 30.57 in
Visibility 6.2 miles
Clouds
Windchill 32 °F
Dew Point 29 °F
Humidity 76%
Rainfall 0.00 in
Snow Depth Not available.
UV Not available.
Pollen Not available.
Air Quality Not available.
Flu Activity Not available.
METAR ESNK 231550Z AUTO 17012KT 9999 NCD 06/M07 Q1035

More Conditions Fewer Conditions

Pressure 30.57 in
Visibility 6.2 miles
Clouds
Windchill 32 °F
Dew Point 29 °F
Humidity 76%
Rainfall 0.00 in
Snow Depth Not available.
UV Not available.
Pollen Not available.
Air Quality Not available.
Flu Activity Not available.
METAR ESNK 231550Z AUTO 17012KT 9999 NCD 06/M07 Q1035

More Conditions Fewer Conditions

10-Day Weather Forecast

Almanac

Astronomy

Apr. 23, 2014 Rise Set
Actual Time 4:53 AM CEST 8:39 PM CEST
Civil Twilight 3:56 AM CEST 9:37 PM CEST
Nautical Twilight 2:25 AM CEST 11:11 PM CEST
Astronomical Twilight Sun does not rise Sun does not rise
Moon 3:18 AM CEST 12:27 PM CEST
Length of Visible Light 17h 41m
Length of Day
15h 45m
Tomorrow will be 6m 17s longer.
Waning Crescent, 35% of the Moon is Illuminated
Today
Waning Crescent
Apr 29
New
May 6
First Quarter
May 14
Full
May 21
Last Quarter

Today's Extremes

Country Highs Country Lows

Community

  • spring flowers
    spring flowers
  • Earth Day Spectrum Ove' Blue
    Earth Day Spectrum Ove' Blue
  • BARN B&W
    BARN B&W
  • April Sunset
    April Sunset
  • Waiting..
    Waiting..

WunderPhotos

Upload Photos

1,704,319 photos uploaded!

Nearby

Snow Depth

Not available.

Coastal Water Temperatures

Place Temperature
No Stations Reporting

Earthquake Activity

City Distance Mag. Time & Date
No recent earthquake activity has been reported nearby.
Minimum magnitude displayed is 2.5.

Nearby Weather Stations

Station Location Temp. Windchill Dew Point Humidity Wind Precip. Elev Updated Type
Ulvon, Ulvohamn 35.5 °F 32 °F 29 °F 76% ESE  at  4.0 mph 0.00 in / hr 300 ft 6:05 PM CEST Normal
Ornskoldsvik, Sweden, �rnsk�ldsvik 39.8 °F 35 °F 21 °F 47% East  at  7.0 mph 0.00 in / hr 164 ft 6:07 PM CEST Rapid Fire
Ornskoldsvik 42.6 °F 38 °F 21 °F 41% SSE  at  6.9 mph 0.00 in / hr 250 ft 6:07 PM CEST Rapid Fire

Show More Stations Show Fewer Stations

What do you think?

We're not finished. Please let us know what you like, what you don't like, and what you are still missing.